Terminal Aerodrome Forecast
Issued by NWS Charleston, WV

Current Version | Previous Version | Text Only | Print | Product List | Glossary Off
Versions: 1 2 3 4 5 6 7 8 9 10 11 12 13 14 15 16 17 18 19 20 21 22 23 24 25

183
FTUS41 KRLX 261740
TAFPKB
TAF
KPKB 261740Z 2618/2718 23009G16KT 4SM SHRA VCTS BKN030CB BKN080
      TEMPO 2618/2621 27015G35KT 3/4SM +TSRA BR OVC020CB
     FM262200 27007KT 3SM SHRA VCTS BKN024CB
     FM270200 36004KT 4SM -SHRA BR BKN015
     FM270600 02004KT 2SM -DZ OVC008
     FM271300 02005KT 5SM BR OVC012
     FM271500 02004KT P6SM BKN020=

USA.gov is the U.S. government's official web portal to all federal, state and local government web resources and services.